createdAt,value
2017-07-02T00:02:16.750Z,16.84
2017-07-02T00:04:44.340Z,16.75
2017-07-02T00:07:11.874Z,16.87
2017-07-02T00:09:39.682Z,16.82
2017-07-02T00:12:07.215Z,16.77
2017-07-02T00:14:34.731Z,16.77
2017-07-02T00:17:02.326Z,16.80
2017-07-02T00:19:29.871Z,16.76
2017-07-02T00:21:57.439Z,16.83
2017-07-02T00:24:25.004Z,16.77
2017-07-02T00:26:52.789Z,16.87
2017-07-02T00:29:20.312Z,16.77
2017-07-02T00:31:47.824Z,16.78
2017-07-02T00:34:15.400Z,16.70
2017-07-02T00:36:42.936Z,16.78
2017-07-02T00:39:10.564Z,16.86
2017-07-02T00:41:38.099Z,16.91
2017-07-02T00:44:05.751Z,16.88
2017-07-02T00:46:33.267Z,16.77
2017-07-02T00:49:01.017Z,16.83
2017-07-02T00:51:28.569Z,16.79
2017-07-02T00:53:56.099Z,16.73
2017-07-02T00:56:23.670Z,16.71
2017-07-02T00:58:51.288Z,16.70
2017-07-02T01:01:18.870Z,16.70
2017-07-02T01:03:46.463Z,16.76
2017-07-02T01:06:14.062Z,16.94
2017-07-02T01:08:41.698Z,16.96
2017-07-02T01:11:09.283Z,16.92
2017-07-02T01:13:36.844Z,17.10
2017-07-02T01:16:04.380Z,17.13
2017-07-02T01:18:32.083Z,16.90
2017-07-02T01:20:59.610Z,16.82
2017-07-02T01:23:27.192Z,16.70
2017-07-02T01:25:54.748Z,16.62
2017-07-02T01:28:22.260Z,16.75
2017-07-02T01:30:49.820Z,16.56
2017-07-02T01:33:17.354Z,16.47
2017-07-02T01:35:44.902Z,16.64
2017-07-02T01:38:12.430Z,16.69
2017-07-02T01:40:40.339Z,16.41
2017-07-02T01:43:07.872Z,16.26
2017-07-02T01:45:35.398Z,16.49
2017-07-02T01:48:03.062Z,16.49
2017-07-02T01:50:30.650Z,16.40
2017-07-02T01:52:58.185Z,16.30
2017-07-02T01:55:25.683Z,16.31
2017-07-02T01:57:53.339Z,16.48
2017-07-02T02:00:20.858Z,16.53
2017-07-02T02:03:00.393Z,16.45
2017-07-02T02:05:27.922Z,16.45
2017-07-02T02:07:55.494Z,16.52
2017-07-02T02:10:23.047Z,16.18
2017-07-02T02:12:50.578Z,16.38
2017-07-02T02:15:18.135Z,16.48
2017-07-02T02:17:45.668Z,16.14
2017-07-02T02:20:13.589Z,16.27
2017-07-02T02:22:41.128Z,16.17
2017-07-02T02:25:08.666Z,16.13
2017-07-02T02:27:36.220Z,15.96
2017-07-02T02:30:03.736Z,16.08
2017-07-02T02:32:31.329Z,16.14
2017-07-02T02:34:58.911Z,16.06
2017-07-02T02:37:26.657Z,15.99
2017-07-02T02:39:54.188Z,15.90
2017-07-02T02:42:21.743Z,16.04
2017-07-02T02:44:49.371Z,16.25
2017-07-02T02:47:16.996Z,16.03
2017-07-02T02:49:44.616Z,15.93
2017-07-02T02:52:12.164Z,15.85
2017-07-02T02:54:39.733Z,15.95
2017-07-02T02:57:07.292Z,15.98
2017-07-02T02:59:34.866Z,16.00
2017-07-02T03:02:02.407Z,16.02
2017-07-02T03:04:30.303Z,16.10
2017-07-02T03:06:57.837Z,16.07
2017-07-02T03:09:25.351Z,16.21
2017-07-02T03:11:52.898Z,16.12
2017-07-02T03:14:20.428Z,16.03
2017-07-02T03:16:47.982Z,16.03
2017-07-02T03:19:15.535Z,16.16
2017-07-02T03:21:43.115Z,16.13
2017-07-02T03:24:10.665Z,16.36
2017-07-02T03:26:38.232Z,16.33
2017-07-02T03:29:05.751Z,16.23
2017-07-02T03:31:33.319Z,16.32
2017-07-02T03:34:00.874Z,16.12
2017-07-02T03:36:28.607Z,16.07
2017-07-02T03:38:56.439Z,16.24
2017-07-02T03:41:24.018Z,16.33
2017-07-02T03:43:51.575Z,16.48
2017-07-02T03:46:19.104Z,16.27
2017-07-02T03:48:46.702Z,16.31
2017-07-02T03:51:14.237Z,16.40
2017-07-02T03:53:41.846Z,16.52
2017-07-02T03:56:09.367Z,16.49
2017-07-02T03:58:37.065Z,16.42
2017-07-02T04:01:04.583Z,16.48
2017-07-02T04:03:32.109Z,16.43
2017-07-02T04:05:59.699Z,16.62
2017-07-02T04:08:27.213Z,16.56
2017-07-02T04:10:55.083Z,16.57
2017-07-02T04:13:22.587Z,16.46
2017-07-02T04:15:50.128Z,16.58
2017-07-02T04:18:17.689Z,16.62
2017-07-02T04:20:45.219Z,16.76
2017-07-02T04:23:12.957Z,16.64
2017-07-02T04:25:40.458Z,16.44
2017-07-02T04:28:08.031Z,16.71
2017-07-02T04:30:35.591Z,16.73
2017-07-02T04:33:03.169Z,16.73
2017-07-02T04:35:30.723Z,16.67
2017-07-02T04:37:58.336Z,16.73
2017-07-02T04:40:25.985Z,16.81
2017-07-02T04:42:53.593Z,16.83
2017-07-02T04:45:21.306Z,16.91
2017-07-02T04:47:48.812Z,17.00
2017-07-02T04:50:16.324Z,16.85
2017-07-02T04:52:43.894Z,16.94
2017-07-02T04:55:11.510Z,16.99
2017-07-02T04:57:39.063Z,16.91
2017-07-02T05:00:06.681Z,16.96
2017-07-02T05:02:34.579Z,17.05
2017-07-02T05:05:02.117Z,16.84
2017-07-02T05:07:29.651Z,16.82
2017-07-02T05:09:57.204Z,16.82
2017-07-02T05:12:24.731Z,16.83
2017-07-02T05:14:52.307Z,16.86
2017-07-02T05:17:19.835Z,16.76
2017-07-02T05:19:47.395Z,16.94
2017-07-02T05:22:14.915Z,16.99
2017-07-02T05:24:42.574Z,17.02
2017-07-02T05:27:10.097Z,17.13
2017-07-02T05:29:37.607Z,17.07
2017-07-02T05:32:05.156Z,17.02
2017-07-02T05:34:32.730Z,17.03
2017-07-02T05:37:00.388Z,17.05
2017-07-02T05:39:27.902Z,17.04
2017-07-02T05:41:55.630Z,17.23
2017-07-02T05:44:23.220Z,17.24
2017-07-02T05:46:50.740Z,17.21
2017-07-02T05:49:18.316Z,17.18
2017-07-02T05:51:45.827Z,17.19
2017-07-02T05:54:13.379Z,17.19
2017-07-02T05:56:40.898Z,17.14
2017-07-02T05:59:08.471Z,17.19
2017-07-02T06:01:36.057Z,17.12
2017-07-02T06:04:03.604Z,17.27
2017-07-02T06:06:31.103Z,17.30
2017-07-02T06:08:58.815Z,17.30
2017-07-02T06:11:26.337Z,17.35
2017-07-02T06:13:53.853Z,17.43
2017-07-02T06:16:21.406Z,17.43
2017-07-02T06:18:48.919Z,17.41
2017-07-02T06:21:16.471Z,17.32
2017-07-02T06:23:43.975Z,17.40
2017-07-02T06:26:11.528Z,17.50
2017-07-02T06:28:39.047Z,17.57
2017-07-02T06:31:06.722Z,17.61
2017-07-02T06:33:34.243Z,17.49
2017-07-02T06:36:01.755Z,17.56
2017-07-02T06:38:29.331Z,17.74
2017-07-02T06:40:56.855Z,17.60
2017-07-02T06:43:24.419Z,17.66
2017-07-02T06:45:51.917Z,17.81
2017-07-02T06:48:19.470Z,18.02
2017-07-02T06:50:47.017Z,17.62
2017-07-02T06:53:14.563Z,17.91
2017-07-02T06:55:42.092Z,17.99
2017-07-02T06:58:09.732Z,17.48
2017-07-02T07:00:37.248Z,17.46
2017-07-02T07:03:04.898Z,17.52
2017-07-02T07:05:32.487Z,17.50
2017-07-02T07:08:00.018Z,17.41
2017-07-02T07:10:27.591Z,17.36
2017-07-02T07:12:55.106Z,17.72
2017-07-02T07:15:22.679Z,17.73
2017-07-02T07:17:50.194Z,17.68
2017-07-02T07:20:17.760Z,17.84
2017-07-02T07:22:45.266Z,17.76
2017-07-02T07:25:12.827Z,18.12
2017-07-02T07:27:40.327Z,18.18
2017-07-02T07:30:08.272Z,18.04
2017-07-02T07:32:35.803Z,17.96
2017-07-02T07:35:03.336Z,18.07
2017-07-02T07:37:30.898Z,18.00
2017-07-02T07:39:58.407Z,18.16
2017-07-02T07:42:25.979Z,18.40
2017-07-02T07:44:53.492Z,18.25
2017-07-02T07:47:21.168Z,18.02
2017-07-02T07:49:48.676Z,18.11
2017-07-02T07:52:16.207Z,18.20
2017-07-02T07:54:43.778Z,18.34
2017-07-02T07:57:11.287Z,18.23
2017-07-02T07:59:38.840Z,18.35
2017-07-02T08:02:06.367Z,18.37
2017-07-02T08:04:33.952Z,18.35
2017-07-02T08:07:01.480Z,18.30
2017-07-02T08:09:29.188Z,18.14
2017-07-02T08:11:56.704Z,18.25
2017-07-02T08:14:24.240Z,18.10
2017-07-02T08:16:51.815Z,18.05
2017-07-02T08:19:19.315Z,18.11
2017-07-02T08:21:46.879Z,18.05
2017-07-02T08:24:14.383Z,17.76
2017-07-02T08:26:41.979Z,17.73
2017-07-02T08:29:09.504Z,17.59
2017-07-02T08:31:37.107Z,17.63
2017-07-02T08:34:04.664Z,17.75
2017-07-02T08:36:32.347Z,17.69
2017-07-02T08:38:59.847Z,17.86
2017-07-02T08:41:27.384Z,17.83
2017-07-02T08:43:54.999Z,17.97
2017-07-02T08:46:22.519Z,18.27
2017-07-02T08:48:50.116Z,18.60
2017-07-02T08:51:17.641Z,18.67
2017-07-02T08:53:45.457Z,18.60
2017-07-02T08:56:12.974Z,18.32
2017-07-02T08:58:40.505Z,18.32
2017-07-02T09:01:08.107Z,18.14
2017-07-02T09:03:35.627Z,18.14
2017-07-02T09:06:03.187Z,18.09
2017-07-02T09:08:30.677Z,18.11
2017-07-02T09:10:58.360Z,18.11
2017-07-02T09:13:25.892Z,18.02
2017-07-02T09:15:53.371Z,18.21
2017-07-02T09:18:20.938Z,18.24
2017-07-02T09:20:48.456Z,18.47
2017-07-02T09:23:16.031Z,18.73
2017-07-02T09:25:43.555Z,18.62
2017-07-02T09:28:11.113Z,18.78
2017-07-02T09:30:38.661Z,18.64
2017-07-02T09:33:06.218Z,18.66
2017-07-02T09:35:33.778Z,18.95
2017-07-02T09:38:01.403Z,19.04
2017-07-02T09:40:28.948Z,19.05
2017-07-02T09:42:56.468Z,18.80
2017-07-02T09:45:24.010Z,18.82
2017-07-02T09:47:51.562Z,18.85
2017-07-02T09:50:19.071Z,18.81
2017-07-02T09:52:46.631Z,18.78
2017-07-02T09:55:14.162Z,18.72
2017-07-02T09:57:41.896Z,18.84
2017-07-02T10:00:09.422Z,18.81
2017-07-02T10:02:36.964Z,18.77
2017-07-02T10:05:04.532Z,18.84
2017-07-02T10:07:32.046Z,18.54
2017-07-02T10:09:59.651Z,18.65
2017-07-02T10:12:27.167Z,18.60
2017-07-02T10:14:54.718Z,18.57
2017-07-02T10:17:22.239Z,18.70
2017-07-02T10:19:49.931Z,18.64
2017-07-02T10:22:17.472Z,18.68
2017-07-02T10:24:44.976Z,18.65
2017-07-02T10:27:12.613Z,18.66
2017-07-02T10:29:40.143Z,18.74
2017-07-02T10:32:07.784Z,18.69
2017-07-02T10:34:35.371Z,18.69
2017-07-02T10:37:03.034Z,18.78
2017-07-02T10:39:30.571Z,18.81
2017-07-02T10:41:58.481Z,18.91
2017-07-02T10:44:26.004Z,19.11
2017-07-02T10:46:53.532Z,19.18
2017-07-02T10:49:21.125Z,19.11
2017-07-02T10:51:48.689Z,19.24
2017-07-02T10:54:16.395Z,19.16
2017-07-02T10:56:44.002Z,19.30
2017-07-02T10:59:11.583Z,19.22
2017-07-02T11:01:39.426Z,19.24
2017-07-02T11:04:07.327Z,19.22
2017-07-02T11:06:34.906Z,19.26
2017-07-02T11:09:02.480Z,19.59
2017-07-02T11:11:30.039Z,19.41
2017-07-02T11:13:57.710Z,19.26
2017-07-02T11:16:25.283Z,19.17
2017-07-02T11:18:52.799Z,19.20
2017-07-02T11:21:20.371Z,19.28
2017-07-02T11:23:47.888Z,19.30
2017-07-02T11:26:15.460Z,19.51
2017-07-02T11:28:43.001Z,19.38
2017-07-02T11:31:10.567Z,19.42
2017-07-02T11:33:38.138Z,19.29
2017-07-02T11:36:06.023Z,19.42
2017-07-02T11:38:33.566Z,19.64
2017-07-02T11:41:01.109Z,19.43
2017-07-02T11:43:28.910Z,19.25
2017-07-02T11:45:56.428Z,19.37
2017-07-02T11:48:24.038Z,19.25
2017-07-02T11:50:51.598Z,19.18
2017-07-02T11:53:19.155Z,19.21
2017-07-02T11:55:46.719Z,19.40
2017-07-02T11:58:14.395Z,19.42
2017-07-02T12:00:42.027Z,19.42
2017-07-02T12:03:09.562Z,19.32
2017-07-02T12:05:37.142Z,19.35
2017-07-02T12:08:04.694Z,19.46
2017-07-02T12:10:32.268Z,19.37
2017-07-02T12:12:59.784Z,19.40
2017-07-02T12:15:27.607Z,19.34
2017-07-02T12:17:55.122Z,19.34
2017-07-02T12:20:23.496Z,19.37
2017-07-02T12:22:51.044Z,19.30
2017-07-02T12:25:18.566Z,19.42
2017-07-02T12:27:46.127Z,19.30
2017-07-02T12:30:13.739Z,19.36
2017-07-02T12:32:41.309Z,19.30
2017-07-02T12:35:08.859Z,19.38
2017-07-02T12:37:36.689Z,19.28
2017-07-02T12:40:04.208Z,19.43
2017-07-02T12:42:31.709Z,19.34
2017-07-02T12:44:59.347Z,19.41
2017-07-02T12:47:26.895Z,19.37
2017-07-02T12:49:54.459Z,19.18
2017-07-02T12:52:21.973Z,19.23
2017-07-02T12:54:49.693Z,19.24
2017-07-02T12:57:17.204Z,19.21
2017-07-02T12:59:44.791Z,19.12
2017-07-02T13:02:12.351Z,19.19
2017-07-02T13:04:39.884Z,19.28
2017-07-02T13:07:07.689Z,19.26
2017-07-02T13:09:35.313Z,19.19
2017-07-02T13:12:03.089Z,19.07
2017-07-02T13:14:30.593Z,18.93
2017-07-02T13:16:58.125Z,18.84
2017-07-02T13:19:25.734Z,18.77
2017-07-02T13:21:53.261Z,18.64
2017-07-02T13:24:20.855Z,18.43
2017-07-02T13:26:48.381Z,18.03
2017-07-02T13:29:16.064Z,17.91
2017-07-02T13:31:43.616Z,17.95
2017-07-02T13:34:11.143Z,18.00
2017-07-02T13:36:38.712Z,17.89
2017-07-02T13:39:06.231Z,18.00
2017-07-02T13:41:33.795Z,17.95
2017-07-02T13:44:01.327Z,17.96
2017-07-02T13:46:29.004Z,17.82
2017-07-02T13:48:56.586Z,17.96
2017-07-02T13:51:24.350Z,17.92
2017-07-02T13:53:52.002Z,17.92
2017-07-02T13:56:19.539Z,17.82
2017-07-02T13:58:47.164Z,17.77
2017-07-02T14:01:14.679Z,17.82
2017-07-02T14:03:42.259Z,17.67
2017-07-02T14:06:09.795Z,17.91
2017-07-02T14:08:37.724Z,18.11
2017-07-02T14:11:05.247Z,18.07
2017-07-02T14:13:32.808Z,18.22
2017-07-02T14:16:00.352Z,18.43
2017-07-02T14:18:27.971Z,18.23
2017-07-02T14:20:55.551Z,18.64
2017-07-02T14:23:23.072Z,18.80
2017-07-02T14:25:50.738Z,19.08
2017-07-02T14:28:18.289Z,19.42
2017-07-02T14:30:45.820Z,19.16
2017-07-02T14:33:13.386Z,19.90
2017-07-02T14:35:41.014Z,19.96
2017-07-02T14:38:08.591Z,20.16
2017-07-02T14:40:36.147Z,20.24
2017-07-02T14:43:03.702Z,20.77
2017-07-02T14:45:31.232Z,20.18
2017-07-02T14:47:58.946Z,20.08
2017-07-02T14:50:26.493Z,20.00
2017-07-02T14:52:54.032Z,20.24
2017-07-02T14:55:21.655Z,20.04
2017-07-02T14:57:49.166Z,20.51
2017-07-02T15:00:16.742Z,20.64
2017-07-02T15:02:44.252Z,20.57
2017-07-02T15:05:11.807Z,20.94
2017-07-02T15:07:39.332Z,20.91
2017-07-02T15:10:06.921Z,20.98
2017-07-02T15:12:34.466Z,20.58
2017-07-02T15:15:02.019Z,20.63
2017-07-02T15:17:29.546Z,20.76
2017-07-02T15:19:57.076Z,20.46
2017-07-02T15:22:24.721Z,20.57
2017-07-02T15:24:52.319Z,20.64
2017-07-02T15:27:19.872Z,20.96
2017-07-02T15:29:47.459Z,21.36
2017-07-02T15:32:15.024Z,21.36
2017-07-02T15:34:42.553Z,21.82
2017-07-02T15:37:10.146Z,21.63
2017-07-02T15:39:37.666Z,21.59
2017-07-02T15:42:05.233Z,20.97
2017-07-02T15:44:32.768Z,21.33
2017-07-02T15:47:00.337Z,21.17
2017-07-02T15:49:27.896Z,21.33
2017-07-02T15:51:55.516Z,21.42
2017-07-02T15:54:23.104Z,21.23
2017-07-02T15:56:50.674Z,21.02
2017-07-02T15:59:18.383Z,20.83
2017-07-02T16:01:45.931Z,20.76
2017-07-02T16:04:13.488Z,20.80
2017-07-02T16:06:41.075Z,20.37
2017-07-02T16:09:08.639Z,20.68
2017-07-02T16:11:36.205Z,21.30
2017-07-02T16:14:03.744Z,21.63
2017-07-02T16:16:31.701Z,21.49
2017-07-02T16:18:59.293Z,21.46
2017-07-02T16:21:26.918Z,22.11
2017-07-02T16:23:54.476Z,21.38
2017-07-02T16:26:22.040Z,20.96
2017-07-02T16:28:49.633Z,21.18
2017-07-02T16:31:17.189Z,21.40
2017-07-02T16:33:44.753Z,21.83
2017-07-02T16:36:12.275Z,21.83
2017-07-02T16:38:39.857Z,21.81
2017-07-02T16:41:07.368Z,21.47
2017-07-02T16:43:35.067Z,21.53
2017-07-02T16:46:02.593Z,21.23
2017-07-02T16:48:30.135Z,21.56
2017-07-02T16:50:57.667Z,21.34
2017-07-02T16:53:25.217Z,21.49
2017-07-02T16:55:52.766Z,21.57
2017-07-02T16:58:20.280Z,21.51
2017-07-02T17:00:47.839Z,21.60
2017-07-02T17:03:15.358Z,21.64
2017-07-02T17:05:43.035Z,21.61
2017-07-02T17:08:10.561Z,21.59
2017-07-02T17:10:38.161Z,21.89
2017-07-02T17:13:05.760Z,22.07
2017-07-02T17:15:33.351Z,22.25
2017-07-02T17:18:00.924Z,22.38
2017-07-02T17:20:28.468Z,22.53
2017-07-02T17:22:56.032Z,22.74
2017-07-02T17:25:23.606Z,22.77
2017-07-02T17:27:51.421Z,22.80
2017-07-02T17:30:18.967Z,22.99
2017-07-02T17:32:46.473Z,22.78
2017-07-02T17:35:14.031Z,22.69
2017-07-02T17:37:41.590Z,22.66
2017-07-02T17:40:09.179Z,22.48
2017-07-02T17:42:36.764Z,22.67
2017-07-02T17:45:04.334Z,23.15
2017-07-02T17:47:31.847Z,22.97
2017-07-02T17:49:59.412Z,23.29
2017-07-02T17:52:27.098Z,23.34
2017-07-02T17:54:54.659Z,23.28
2017-07-02T17:57:22.348Z,23.28
2017-07-02T17:59:49.910Z,23.05
2017-07-02T18:02:17.601Z,23.32
2017-07-02T18:04:45.366Z,23.35
2017-07-02T18:07:12.876Z,23.06
2017-07-02T18:09:40.433Z,23.09
2017-07-02T18:12:07.965Z,23.05
2017-07-02T18:14:35.527Z,22.91
2017-07-02T18:17:03.127Z,23.02
2017-07-02T18:19:30.795Z,22.61
2017-07-02T18:21:58.303Z,22.91
2017-07-02T18:24:25.827Z,22.92
2017-07-02T18:26:53.399Z,23.09
2017-07-02T18:29:20.951Z,22.73
2017-07-02T18:31:48.559Z,23.03
2017-07-02T18:34:16.154Z,22.52
2017-07-02T18:36:43.755Z,22.60
2017-07-02T18:39:11.313Z,22.24
2017-07-02T18:41:38.880Z,22.63
2017-07-02T18:44:06.479Z,22.20
2017-07-02T18:46:34.150Z,21.85
2017-07-02T18:49:01.719Z,21.71
2017-07-02T18:51:29.278Z,21.75
2017-07-02T18:53:56.884Z,21.40
2017-07-02T18:56:24.412Z,21.35
2017-07-02T18:58:51.975Z,21.51
2017-07-02T19:01:19.506Z,21.25
2017-07-02T19:03:47.456Z,21.32
2017-07-02T19:06:14.979Z,21.23
2017-07-02T19:08:42.528Z,21.12
2017-07-02T19:11:10.139Z,21.05
2017-07-02T19:13:37.707Z,21.19
2017-07-02T19:16:05.259Z,21.05
2017-07-02T19:18:32.793Z,20.76
2017-07-02T19:21:00.396Z,20.86
2017-07-02T19:23:28.019Z,21.03
2017-07-02T19:25:55.604Z,21.26
2017-07-02T19:28:23.178Z,20.87
2017-07-02T19:30:50.828Z,20.68
2017-07-02T19:33:18.361Z,20.52
2017-07-02T19:35:45.888Z,20.59
2017-07-02T19:38:13.467Z,20.52
2017-07-02T19:40:41.044Z,20.51
2017-07-02T19:43:08.660Z,20.32
2017-07-02T19:45:36.193Z,20.30
2017-07-02T19:48:03.774Z,20.21
2017-07-02T19:50:31.383Z,20.21
2017-07-02T19:52:59.064Z,19.99
2017-07-02T19:55:26.597Z,20.03
2017-07-02T19:57:54.146Z,19.75
2017-07-02T20:00:21.779Z,19.74
2017-07-02T20:02:49.295Z,19.75
2017-07-02T20:05:16.879Z,19.53
2017-07-02T20:07:44.473Z,19.58
2017-07-02T20:10:12.411Z,19.64
2017-07-02T20:12:40.037Z,19.49
2017-07-02T20:15:07.624Z,19.41
2017-07-02T20:17:35.171Z,19.22
2017-07-02T20:20:02.696Z,19.24
2017-07-02T20:22:30.268Z,19.46
2017-07-02T20:24:57.800Z,19.29
2017-07-02T20:27:25.499Z,19.25
2017-07-02T20:29:53.069Z,19.23
2017-07-02T20:32:20.751Z,19.21
2017-07-02T20:34:48.286Z,19.15
2017-07-02T20:37:15.832Z,19.04
2017-07-02T20:39:43.422Z,19.05
2017-07-02T20:42:10.955Z,18.82
2017-07-02T20:44:38.491Z,18.86
2017-07-02T20:47:05.995Z,18.77
2017-07-02T20:49:33.555Z,18.83
2017-07-02T20:52:01.085Z,18.86
2017-07-02T20:54:28.645Z,18.80
2017-07-02T20:56:56.166Z,18.85
2017-07-02T20:59:23.826Z,18.77
2017-07-02T21:01:51.356Z,18.66
2017-07-02T21:04:18.869Z,18.62
2017-07-02T21:06:46.549Z,18.49
2017-07-02T21:09:14.079Z,18.67
2017-07-02T21:11:41.708Z,18.37
2017-07-02T21:14:09.234Z,18.28
2017-07-02T21:16:36.836Z,18.26
2017-07-02T21:19:04.350Z,18.42
2017-07-02T21:21:31.920Z,18.30
2017-07-02T21:23:59.448Z,18.12
2017-07-02T21:26:27.257Z,18.16
2017-07-02T21:28:54.753Z,18.13
2017-07-02T21:31:22.272Z,18.22
2017-07-02T21:33:49.830Z,17.94
2017-07-02T21:36:17.339Z,18.03
2017-07-02T21:38:44.924Z,17.99
2017-07-02T21:41:12.487Z,17.96
2017-07-02T21:43:40.067Z,17.91
2017-07-02T21:46:07.632Z,17.99
2017-07-02T21:48:35.184Z,17.89
2017-07-02T21:51:02.691Z,17.86
2017-07-02T21:53:30.365Z,17.66
2017-07-02T21:55:57.871Z,17.91
2017-07-02T21:58:25.391Z,17.80
2017-07-02T22:00:52.945Z,17.93
2017-07-02T22:03:20.466Z,17.84
2017-07-02T22:05:48.019Z,17.72
2017-07-02T22:08:15.530Z,17.51
2017-07-02T22:10:43.180Z,17.40
2017-07-02T22:13:10.716Z,17.32
2017-07-02T22:15:38.249Z,17.43
2017-07-02T22:18:05.792Z,17.37
2017-07-02T22:20:33.320Z,17.35
2017-07-02T22:23:00.940Z,17.20
2017-07-02T22:25:28.522Z,17.20
2017-07-02T22:27:56.379Z,17.25
2017-07-02T22:30:23.904Z,17.20
2017-07-02T22:32:51.418Z,17.14
2017-07-02T22:35:18.977Z,16.97
2017-07-02T22:37:46.503Z,16.99
2017-07-02T22:40:14.071Z,16.91
2017-07-02T22:42:41.572Z,16.93
2017-07-02T22:45:09.114Z,16.86
2017-07-02T22:47:36.622Z,16.81
2017-07-02T22:50:04.196Z,16.91
2017-07-02T22:52:31.760Z,17.00
2017-07-02T22:54:59.502Z,17.01
2017-07-02T22:57:27.099Z,16.91
2017-07-02T22:59:54.620Z,16.73
2017-07-02T23:02:22.180Z,16.77
2017-07-02T23:04:49.695Z,16.92
2017-07-02T23:07:17.400Z,16.93
2017-07-02T23:09:44.911Z,16.74
2017-07-02T23:12:12.692Z,16.62
2017-07-02T23:14:40.204Z,16.62
2017-07-02T23:17:07.722Z,16.69
2017-07-02T23:19:35.408Z,16.63
2017-07-02T23:22:02.922Z,16.60
2017-07-02T23:24:30.512Z,16.51
2017-07-02T23:26:58.091Z,16.42
2017-07-02T23:29:25.683Z,16.33
2017-07-02T23:31:53.250Z,16.22
2017-07-02T23:34:20.840Z,16.33
2017-07-02T23:36:48.480Z,16.24
2017-07-02T23:39:15.994Z,16.32
2017-07-02T23:41:43.562Z,16.28
2017-07-02T23:44:11.084Z,16.35
2017-07-02T23:46:38.655Z,16.43
2017-07-02T23:49:06.219Z,16.29
2017-07-02T23:51:33.820Z,16.23
2017-07-02T23:54:01.395Z,16.40
2017-07-02T23:56:29.180Z,16.26
2017-07-02T23:58:56.707Z,16.29
